sensor_id;sensor_type;location;lat;lon;timestamp;P1;durP1;ratioP1;P2;durP2;ratioP2
9218;SDS011;4644;48.858;9.184;2023-04-24T00:10:55;1.43;;;0.90;;
9218;SDS011;4644;48.858;9.184;2023-04-24T00:13:22;0.90;;;0.90;;
9218;SDS011;4644;48.858;9.184;2023-04-24T00:15:49;0.67;;;0.67;;
9218;SDS011;4644;48.858;9.184;2023-04-24T00:18:16;0.77;;;0.67;;
9218;SDS011;4644;48.858;9.184;2023-04-24T00:20:43;1.17;;;1.00;;
9218;SDS011;4644;48.858;9.184;2023-04-24T00:23:11;1.00;;;0.80;;
9218;SDS011;4644;48.858;9.184;2023-04-24T00:25:38;1.10;;;0.97;;
9218;SDS011;4644;48.858;9.184;2023-04-24T00:28:07;1.02;;;0.98;;
9218;SDS011;4644;48.858;9.184;2023-04-24T00:30:34;0.80;;;0.80;;
9218;SDS011;4644;48.858;9.184;2023-04-24T00:33:01;0.87;;;0.80;;
9218;SDS011;4644;48.858;9.184;2023-04-24T00:35:28;2.20;;;0.73;;
9218;SDS011;4644;48.858;9.184;2023-04-24T00:37:55;0.80;;;0.80;;
9218;SDS011;4644;48.858;9.184;2023-04-24T00:40:22;1.10;;;1.00;;
9218;SDS011;4644;48.858;9.184;2023-04-24T00:42:49;1.70;;;1.17;;
9218;SDS011;4644;48.858;9.184;2023-04-24T00:45:17;1.27;;;0.90;;
9218;SDS011;4644;48.858;9.184;2023-04-24T00:47:44;1.47;;;1.37;;
9218;SDS011;4644;48.858;9.184;2023-04-24T00:50:12;1.20;;;0.80;;
9218;SDS011;4644;48.858;9.184;2023-04-24T00:52:41;1.10;;;1.00;;
9218;SDS011;4644;48.858;9.184;2023-04-24T00:55:08;2.60;;;0.87;;
9218;SDS011;4644;48.858;9.184;2023-04-24T00:57:35;2.77;;;1.00;;
9218;SDS011;4644;48.858;9.184;2023-04-24T01:00:02;1.07;;;0.90;;
9218;SDS011;4644;48.858;9.184;2023-04-24T01:02:38;1.60;;;0.93;;
9218;SDS011;4644;48.858;9.184;2023-04-24T01:05:09;1.17;;;0.87;;
9218;SDS011;4644;48.858;9.184;2023-04-24T01:07:36;1.10;;;0.90;;
9218;SDS011;4644;48.858;9.184;2023-04-24T01:10:04;0.97;;;0.97;;
9218;SDS011;4644;48.858;9.184;2023-04-24T01:12:33;0.80;;;0.80;;
9218;SDS011;4644;48.858;9.184;2023-04-24T01:15:00;0.80;;;0.80;;
9218;SDS011;4644;48.858;9.184;2023-04-24T01:17:28;1.80;;;0.70;;
9218;SDS011;4644;48.858;9.184;2023-04-24T01:19:56;1.07;;;0.77;;
9218;SDS011;4644;48.858;9.184;2023-04-24T01:32:12;0.90;;;0.90;;
9218;SDS011;4644;48.858;9.184;2023-04-24T01:34:40;1.50;;;0.70;;
9218;SDS011;4644;48.858;9.184;2023-04-24T01:37:07;0.93;;;0.90;;
9218;SDS011;4644;48.858;9.184;2023-04-24T01:39:35;1.35;;;0.75;;
9218;SDS011;4644;48.858;9.184;2023-04-24T01:42:02;2.72;;;0.80;;
9218;SDS011;4644;48.858;9.184;2023-04-24T01:44:30;1.90;;;0.90;;
9218;SDS011;4644;48.858;9.184;2023-04-24T01:46:57;2.45;;;0.80;;
9218;SDS011;4644;48.858;9.184;2023-04-24T01:49:24;2.30;;;0.90;;
9218;SDS011;4644;48.858;9.184;2023-04-24T01:51:51;2.13;;;0.77;;
9218;SDS011;4644;48.858;9.184;2023-04-24T01:54:20;0.73;;;0.70;;
9218;SDS011;4644;48.858;9.184;2023-04-24T01:56:48;1.08;;;0.88;;
9218;SDS011;4644;48.858;9.184;2023-04-24T01:59:15;0.82;;;0.65;;
9218;SDS011;4644;48.858;9.184;2023-04-24T02:01:44;1.35;;;0.90;;
9218;SDS011;4644;48.858;9.184;2023-04-24T02:04:11;1.00;;;0.80;;
9218;SDS011;4644;48.858;9.184;2023-04-24T02:06:38;0.95;;;0.90;;
9218;SDS011;4644;48.858;9.184;2023-04-24T02:09:05;0.80;;;0.70;;
9218;SDS011;4644;48.858;9.184;2023-04-24T02:11:33;1.02;;;0.80;;
9218;SDS011;4644;48.858;9.184;2023-04-24T02:14:01;1.00;;;0.90;;
9218;SDS011;4644;48.858;9.184;2023-04-24T02:16:28;1.55;;;0.85;;
9218;SDS011;4644;48.858;9.184;2023-04-24T02:18:57;1.30;;;0.90;;
9218;SDS011;4644;48.858;9.184;2023-04-24T02:21:24;1.70;;;1.10;;
9218;SDS011;4644;48.858;9.184;2023-04-24T02:23:52;1.48;;;0.90;;
9218;SDS011;4644;48.858;9.184;2023-04-24T02:26:19;1.77;;;0.80;;
9218;SDS011;4644;48.858;9.184;2023-04-24T02:28:46;0.80;;;0.80;;
9218;SDS011;4644;48.858;9.184;2023-04-24T02:31:14;1.15;;;0.95;;
9218;SDS011;4644;48.858;9.184;2023-04-24T02:33:41;1.35;;;1.00;;
9218;SDS011;4644;48.858;9.184;2023-04-24T02:36:08;1.35;;;1.00;;
9218;SDS011;4644;48.858;9.184;2023-04-24T02:38:35;1.48;;;1.00;;
9218;SDS011;4644;48.858;9.184;2023-04-24T02:41:02;3.50;;;0.93;;
9218;SDS011;4644;48.858;9.184;2023-04-24T02:43:31;1.88;;;0.73;;
9218;SDS011;4644;48.858;9.184;2023-04-24T02:45:58;1.20;;;0.90;;
9218;SDS011;4644;48.858;9.184;2023-04-24T02:48:26;1.30;;;0.93;;
9218;SDS011;4644;48.858;9.184;2023-04-24T02:50:53;1.05;;;0.90;;
9218;SDS011;4644;48.858;9.184;2023-04-24T02:53:20;2.20;;;1.00;;
9218;SDS011;4644;48.858;9.184;2023-04-24T02:55:48;1.63;;;0.90;;
9218;SDS011;4644;48.858;9.184;2023-04-24T02:58:15;0.70;;;0.70;;
9218;SDS011;4644;48.858;9.184;2023-04-24T03:00:42;2.40;;;1.10;;
9218;SDS011;4644;48.858;9.184;2023-04-24T03:03:09;1.20;;;0.90;;
9218;SDS011;4644;48.858;9.184;2023-04-24T03:05:38;0.95;;;0.90;;
9218;SDS011;4644;48.858;9.184;2023-04-24T03:08:05;2.20;;;0.88;;
9218;SDS011;4644;48.858;9.184;2023-04-24T03:10:32;1.20;;;1.00;;
9218;SDS011;4644;48.858;9.184;2023-04-24T03:12:59;1.27;;;0.70;;
9218;SDS011;4644;48.858;9.184;2023-04-24T03:15:26;0.80;;;0.80;;
9218;SDS011;4644;48.858;9.184;2023-04-24T03:17:53;1.05;;;0.90;;
9218;SDS011;4644;48.858;9.184;2023-04-24T03:20:20;1.90;;;0.90;;
9218;SDS011;4644;48.858;9.184;2023-04-24T03:22:48;1.77;;;0.90;;
9218;SDS011;4644;48.858;9.184;2023-04-24T03:25:15;1.50;;;1.10;;
9218;SDS011;4644;48.858;9.184;2023-04-24T03:27:42;1.92;;;0.80;;
9218;SDS011;4644;48.858;9.184;2023-04-24T03:30:10;1.20;;;0.88;;
9218;SDS011;4644;48.858;9.184;2023-04-24T03:32:37;1.30;;;1.00;;
9218;SDS011;4644;48.858;9.184;2023-04-24T03:35:04;3.67;;;1.30;;
9218;SDS011;4644;48.858;9.184;2023-04-24T03:37:32;1.37;;;1.10;;
9218;SDS011;4644;48.858;9.184;2023-04-24T03:40:01;2.70;;;0.90;;
9218;SDS011;4644;48.858;9.184;2023-04-24T03:42:28;1.50;;;1.17;;
9218;SDS011;4644;48.858;9.184;2023-04-24T03:44:55;1.63;;;1.10;;
9218;SDS011;4644;48.858;9.184;2023-04-24T03:47:21;0.90;;;0.80;;
9218;SDS011;4644;48.858;9.184;2023-04-24T03:49:48;2.03;;;1.00;;
9218;SDS011;4644;48.858;9.184;2023-04-24T03:52:16;1.65;;;1.17;;
9218;SDS011;4644;48.858;9.184;2023-04-24T03:54:43;2.53;;;1.00;;
9218;SDS011;4644;48.858;9.184;2023-04-24T03:57:11;1.40;;;0.90;;
9218;SDS011;4644;48.858;9.184;2023-04-24T03:59:38;1.35;;;0.90;;
9218;SDS011;4644;48.858;9.184;2023-04-24T04:02:05;1.23;;;0.80;;
9218;SDS011;4644;48.858;9.184;2023-04-24T04:04:32;1.90;;;1.00;;
9218;SDS011;4644;48.858;9.184;2023-04-24T04:06:59;1.30;;;0.90;;
9218;SDS011;4644;48.858;9.184;2023-04-24T04:09:28;2.03;;;0.93;;
9218;SDS011;4644;48.858;9.184;2023-04-24T04:11:55;1.65;;;1.10;;
9218;SDS011;4644;48.858;9.184;2023-04-24T04:14:23;1.20;;;0.90;;
9218;SDS011;4644;48.858;9.184;2023-04-24T04:16:50;1.30;;;0.90;;
9218;SDS011;4644;48.858;9.184;2023-04-24T04:19:17;1.55;;;1.10;;
9218;SDS011;4644;48.858;9.184;2023-04-24T04:21:44;3.50;;;0.90;;
9218;SDS011;4644;48.858;9.184;2023-04-24T04:24:15;1.67;;;1.10;;
9218;SDS011;4644;48.858;9.184;2023-04-24T04:26:42;1.90;;;1.30;;
9218;SDS011;4644;48.858;9.184;2023-04-24T04:29:12;1.40;;;1.30;;
9218;SDS011;4644;48.858;9.184;2023-04-24T04:31:40;3.05;;;1.45;;
9218;SDS011;4644;48.858;9.184;2023-04-24T04:34:07;2.50;;;1.40;;
9218;SDS011;4644;48.858;9.184;2023-04-24T04:36:34;3.45;;;1.80;;
9218;SDS011;4644;48.858;9.184;2023-04-24T04:39:01;1.70;;;1.60;;
9218;SDS011;4644;48.858;9.184;2023-04-24T04:41:29;2.90;;;1.30;;
9218;SDS011;4644;48.858;9.184;2023-04-24T04:43:55;2.33;;;1.40;;
9218;SDS011;4644;48.858;9.184;2023-04-24T04:46:24;1.70;;;1.60;;
9218;SDS011;4644;48.858;9.184;2023-04-24T04:48:53;1.88;;;1.52;;
9218;SDS011;4644;48.858;9.184;2023-04-24T04:51:21;1.50;;;1.40;;
9218;SDS011;4644;48.858;9.184;2023-04-24T04:53:48;2.60;;;1.40;;
9218;SDS011;4644;48.858;9.184;2023-04-24T04:56:15;1.63;;;1.50;;
9218;SDS011;4644;48.858;9.184;2023-04-24T04:58:42;1.50;;;1.30;;
9218;SDS011;4644;48.858;9.184;2023-04-24T05:01:09;1.67;;;1.40;;
9218;SDS011;4644;48.858;9.184;2023-04-24T05:03:36;1.45;;;1.30;;
9218;SDS011;4644;48.858;9.184;2023-04-24T05:06:04;1.70;;;1.40;;
9218;SDS011;4644;48.858;9.184;2023-04-24T05:08:32;1.67;;;1.58;;
9218;SDS011;4644;48.858;9.184;2023-04-24T05:10:59;3.38;;;1.92;;
9218;SDS011;4644;48.858;9.184;2023-04-24T05:13:26;2.10;;;1.90;;
9218;SDS011;4644;48.858;9.184;2023-04-24T05:15:52;1.80;;;1.70;;
9218;SDS011;4644;48.858;9.184;2023-04-24T05:18:19;2.40;;;1.70;;
9218;SDS011;4644;48.858;9.184;2023-04-24T05:20:46;2.28;;;1.70;;
9218;SDS011;4644;48.858;9.184;2023-04-24T05:23:15;2.50;;;1.90;;
9218;SDS011;4644;48.858;9.184;2023-04-24T05:25:42;1.80;;;1.60;;
9218;SDS011;4644;48.858;9.184;2023-04-24T05:28:09;2.03;;;1.90;;
9218;SDS011;4644;48.858;9.184;2023-04-24T05:30:36;1.90;;;1.70;;
9218;SDS011;4644;48.858;9.184;2023-04-24T05:33:02;2.30;;;1.73;;
9218;SDS011;4644;48.858;9.184;2023-04-24T05:35:30;2.10;;;1.75;;
9218;SDS011;4644;48.858;9.184;2023-04-24T05:37:57;1.67;;;1.55;;
9218;SDS011;4644;48.858;9.184;2023-04-24T05:40:25;1.75;;;1.60;;
9218;SDS011;4644;48.858;9.184;2023-04-24T05:42:52;2.13;;;1.80;;
9218;SDS011;4644;48.858;9.184;2023-04-24T05:45:19;1.90;;;1.67;;
9218;SDS011;4644;48.858;9.184;2023-04-24T05:47:45;2.30;;;1.70;;
9218;SDS011;4644;48.858;9.184;2023-04-24T05:50:13;2.80;;;1.57;;
9218;SDS011;4644;48.858;9.184;2023-04-24T05:52:40;1.83;;;1.70;;
9218;SDS011;4644;48.858;9.184;2023-04-24T05:55:07;1.70;;;1.60;;
9218;SDS011;4644;48.858;9.184;2023-04-24T05:57:35;2.65;;;1.77;;
9218;SDS011;4644;48.858;9.184;2023-04-24T06:00:03;1.90;;;1.77;;
9218;SDS011;4644;48.858;9.184;2023-04-24T06:02:31;2.20;;;1.87;;
9218;SDS011;4644;48.858;9.184;2023-04-24T06:04:57;2.10;;;1.92;;
9218;SDS011;4644;48.858;9.184;2023-04-24T06:07:25;2.58;;;1.92;;
9218;SDS011;4644;48.858;9.184;2023-04-24T06:09:52;1.63;;;1.52;;
9218;SDS011;4644;48.858;9.184;2023-04-24T06:12:19;2.15;;;1.83;;
9218;SDS011;4644;48.858;9.184;2023-04-24T06:14:47;1.95;;;1.70;;
9218;SDS011;4644;48.858;9.184;2023-04-24T06:17:15;2.08;;;1.70;;
9218;SDS011;4644;48.858;9.184;2023-04-24T06:19:43;2.13;;;1.67;;
9218;SDS011;4644;48.858;9.184;2023-04-24T06:22:10;4.30;;;2.60;;
9218;SDS011;4644;48.858;9.184;2023-04-24T06:24:37;6.82;;;3.63;;
9218;SDS011;4644;48.858;9.184;2023-04-24T06:27:04;2.28;;;1.90;;
9218;SDS011;4644;48.858;9.184;2023-04-24T06:29:31;2.15;;;1.90;;
9218;SDS011;4644;48.858;9.184;2023-04-24T06:31:59;1.90;;;1.73;;
9218;SDS011;4644;48.858;9.184;2023-04-24T06:34:26;3.58;;;1.70;;
9218;SDS011;4644;48.858;9.184;2023-04-24T06:36:53;2.15;;;1.50;;
9218;SDS011;4644;48.858;9.184;2023-04-24T06:39:21;2.33;;;1.90;;
9218;SDS011;4644;48.858;9.184;2023-04-24T06:41:47;1.90;;;1.80;;
9218;SDS011;4644;48.858;9.184;2023-04-24T06:44:14;1.90;;;1.80;;
9218;SDS011;4644;48.858;9.184;2023-04-24T06:46:42;2.17;;;1.80;;
9218;SDS011;4644;48.858;9.184;2023-04-24T06:49:12;1.85;;;1.70;;
9218;SDS011;4644;48.858;9.184;2023-04-24T06:51:41;3.92;;;1.80;;
9218;SDS011;4644;48.858;9.184;2023-04-24T06:54:07;2.03;;;1.85;;
9218;SDS011;4644;48.858;9.184;2023-04-24T06:56:34;2.00;;;1.58;;
9218;SDS011;4644;48.858;9.184;2023-04-24T06:59:02;1.75;;;1.60;;
9218;SDS011;4644;48.858;9.184;2023-04-24T07:01:28;1.90;;;1.80;;
9218;SDS011;4644;48.858;9.184;2023-04-24T07:03:55;2.95;;;1.80;;
9218;SDS011;4644;48.858;9.184;2023-04-24T07:06:23;2.05;;;1.70;;
9218;SDS011;4644;48.858;9.184;2023-04-24T07:08:52;2.33;;;1.90;;
9218;SDS011;4644;48.858;9.184;2023-04-24T07:11:20;1.60;;;1.50;;
9218;SDS011;4644;48.858;9.184;2023-04-24T07:13:47;2.00;;;1.90;;
9218;SDS011;4644;48.858;9.184;2023-04-24T07:21:07;1.60;;;1.50;;
9218;SDS011;4644;48.858;9.184;2023-04-24T07:23:36;1.70;;;1.58;;
9218;SDS011;4644;48.858;9.184;2023-04-24T07:26:03;2.50;;;1.52;;
9218;SDS011;4644;48.858;9.184;2023-04-24T07:28:30;3.33;;;1.65;;
9218;SDS011;4644;48.858;9.184;2023-04-24T07:30:57;1.93;;;1.60;;
9218;SDS011;4644;48.858;9.184;2023-04-24T07:33:25;2.58;;;1.60;;
9218;SDS011;4644;48.858;9.184;2023-04-24T07:45:46;4.50;;;1.40;;
9218;SDS011;4644;48.858;9.184;2023-04-24T07:48:13;1.53;;;1.27;;
9218;SDS011;4644;48.858;9.184;2023-04-24T09:21:35;1.20;;;1.10;;
9218;SDS011;4644;48.858;9.184;2023-04-24T09:24:04;2.10;;;1.10;;
9218;SDS011;4644;48.858;9.184;2023-04-24T09:26:34;1.65;;;1.40;;
9218;SDS011;4644;48.858;9.184;2023-04-24T09:29:03;1.52;;;1.20;;
9218;SDS011;4644;48.858;9.184;2023-04-24T09:31:30;1.73;;;1.20;;
9218;SDS011;4644;48.858;9.184;2023-04-24T09:34:01;2.55;;;1.23;;
9218;SDS011;4644;48.858;9.184;2023-04-24T09:36:31;2.17;;;1.20;;
9218;SDS011;4644;48.858;9.184;2023-04-24T09:38:59;1.52;;;1.10;;
9218;SDS011;4644;48.858;9.184;2023-04-24T09:41:28;1.77;;;1.27;;
9218;SDS011;4644;48.858;9.184;2023-04-24T09:43:55;1.40;;;1.20;;
9218;SDS011;4644;48.858;9.184;2023-04-24T09:46:29;1.40;;;1.30;;
9218;SDS011;4644;48.858;9.184;2023-04-24T09:48:57;1.37;;;1.20;;
9218;SDS011;4644;48.858;9.184;2023-04-24T09:51:33;2.50;;;1.30;;
9218;SDS011;4644;48.858;9.184;2023-04-24T09:54:02;1.30;;;1.00;;
9218;SDS011;4644;48.858;9.184;2023-04-24T09:56:33;1.95;;;1.00;;
9218;SDS011;4644;48.858;9.184;2023-04-24T09:59:06;1.20;;;1.05;;
9218;SDS011;4644;48.858;9.184;2023-04-24T10:01:33;1.50;;;1.30;;
9218;SDS011;4644;48.858;9.184;2023-04-24T10:04:01;2.30;;;1.03;;
9218;SDS011;4644;48.858;9.184;2023-04-24T10:06:32;2.50;;;1.00;;
9218;SDS011;4644;48.858;9.184;2023-04-24T10:09:01;2.30;;;1.50;;
9218;SDS011;4644;48.858;9.184;2023-04-24T10:11:28;1.48;;;1.30;;
9218;SDS011;4644;48.858;9.184;2023-04-24T10:13:58;1.20;;;1.10;;
9218;SDS011;4644;48.858;9.184;2023-04-24T10:16:25;1.08;;;1.08;;
9218;SDS011;4644;48.858;9.184;2023-04-24T10:18:53;1.38;;;1.20;;
9218;SDS011;4644;48.858;9.184;2023-04-24T10:21:21;2.13;;;1.10;;
9218;SDS011;4644;48.858;9.184;2023-04-24T10:23:49;1.27;;;1.17;;
9218;SDS011;4644;48.858;9.184;2023-04-24T10:26:17;2.88;;;1.35;;
9218;SDS011;4644;48.858;9.184;2023-04-24T10:28:45;2.10;;;1.20;;
9218;SDS011;4644;48.858;9.184;2023-04-24T10:31:14;1.33;;;1.17;;
9218;SDS011;4644;48.858;9.184;2023-04-24T10:33:42;1.30;;;1.20;;
9218;SDS011;4644;48.858;9.184;2023-04-24T10:36:10;2.08;;;1.27;;
9218;SDS011;4644;48.858;9.184;2023-04-24T10:38:38;1.40;;;1.30;;
9218;SDS011;4644;48.858;9.184;2023-04-24T11:08:29;1.40;;;1.30;;
9218;SDS011;4644;48.858;9.184;2023-04-24T11:10:58;2.00;;;1.08;;
9218;SDS011;4644;48.858;9.184;2023-04-24T11:13:28;1.43;;;1.30;;
9218;SDS011;4644;48.858;9.184;2023-04-24T11:16:31;1.10;;;1.10;;
9218;SDS011;4644;48.858;9.184;2023-04-24T11:19:00;1.90;;;1.20;;
9218;SDS011;4644;48.858;9.184;2023-04-24T11:21:32;3.22;;;1.20;;
9218;SDS011;4644;48.858;9.184;2023-04-24T11:24:26;1.10;;;1.10;;
9218;SDS011;4644;48.858;9.184;2023-04-24T11:26:56;1.02;;;1.02;;
9218;SDS011;4644;48.858;9.184;2023-04-24T11:29:38;1.80;;;1.40;;
9218;SDS011;4644;48.858;9.184;2023-04-24T12:19:35;1.90;;;1.17;;
9218;SDS011;4644;48.858;9.184;2023-04-24T12:22:03;1.65;;;1.50;;
9218;SDS011;4644;48.858;9.184;2023-04-24T12:24:31;1.90;;;1.40;;
9218;SDS011;4644;48.858;9.184;2023-04-24T12:26:59;1.70;;;1.30;;
9218;SDS011;4644;48.858;9.184;2023-04-24T12:29:27;1.88;;;1.30;;
9218;SDS011;4644;48.858;9.184;2023-04-24T12:31:54;1.38;;;1.20;;
9218;SDS011;4644;48.858;9.184;2023-04-24T12:34:22;1.15;;;1.08;;
9218;SDS011;4644;48.858;9.184;2023-04-24T12:36:51;1.45;;;1.30;;
9218;SDS011;4644;48.858;9.184;2023-04-24T12:39:18;1.60;;;1.30;;
9218;SDS011;4644;48.858;9.184;2023-04-24T12:41:50;1.77;;;1.38;;
9218;SDS011;4644;48.858;9.184;2023-04-24T12:44:29;2.78;;;1.27;;
9218;SDS011;4644;48.858;9.184;2023-04-24T12:46:57;1.38;;;1.27;;
9218;SDS011;4644;48.858;9.184;2023-04-24T12:49:24;1.83;;;1.23;;
9218;SDS011;4644;48.858;9.184;2023-04-24T12:51:51;1.73;;;1.50;;
9218;SDS011;4644;48.858;9.184;2023-04-24T12:54:18;2.10;;;1.30;;
9218;SDS011;4644;48.858;9.184;2023-04-24T12:56:45;2.15;;;1.40;;
9218;SDS011;4644;48.858;9.184;2023-04-24T12:59:12;2.58;;;1.70;;
9218;SDS011;4644;48.858;9.184;2023-04-24T13:06:33;1.70;;;1.60;;
9218;SDS011;4644;48.858;9.184;2023-04-24T13:09:00;1.50;;;1.40;;
9218;SDS011;4644;48.858;9.184;2023-04-24T13:11:28;1.77;;;1.20;;
9218;SDS011;4644;48.858;9.184;2023-04-24T13:13:55;1.40;;;1.30;;
9218;SDS011;4644;48.858;9.184;2023-04-24T13:16:22;1.48;;;1.40;;
9218;SDS011;4644;48.858;9.184;2023-04-24T13:18:51;1.60;;;1.50;;
9218;SDS011;4644;48.858;9.184;2023-04-24T13:21:20;3.25;;;1.60;;
9218;SDS011;4644;48.858;9.184;2023-04-24T13:23:48;2.00;;;1.90;;
9218;SDS011;4644;48.858;9.184;2023-04-24T13:26:15;2.78;;;1.75;;
9218;SDS011;4644;48.858;9.184;2023-04-24T13:28:42;2.10;;;1.90;;
9218;SDS011;4644;48.858;9.184;2023-04-24T13:31:09;2.78;;;2.05;;
9218;SDS011;4644;48.858;9.184;2023-04-24T13:33:36;2.10;;;1.90;;
9218;SDS011;4644;48.858;9.184;2023-04-24T13:36:05;2.75;;;1.80;;
9218;SDS011;4644;48.858;9.184;2023-04-24T13:38:32;1.83;;;1.73;;
9218;SDS011;4644;48.858;9.184;2023-04-24T13:40:59;2.67;;;1.90;;
9218;SDS011;4644;48.858;9.184;2023-04-24T13:43:27;2.33;;;1.63;;
9218;SDS011;4644;48.858;9.184;2023-04-24T13:45:53;2.40;;;1.90;;
9218;SDS011;4644;48.858;9.184;2023-04-24T13:48:20;2.70;;;1.70;;
9218;SDS011;4644;48.858;9.184;2023-04-24T13:50:47;2.67;;;1.87;;
9218;SDS011;4644;48.858;9.184;2023-04-24T13:53:16;2.53;;;1.80;;
9218;SDS011;4644;48.858;9.184;2023-04-24T13:55:43;2.03;;;1.70;;
9218;SDS011;4644;48.858;9.184;2023-04-24T13:58:10;1.50;;;1.40;;
9218;SDS011;4644;48.858;9.184;2023-04-24T14:00:37;1.70;;;1.60;;
9218;SDS011;4644;48.858;9.184;2023-04-24T14:03:04;1.48;;;1.30;;
9218;SDS011;4644;48.858;9.184;2023-04-24T14:05:31;1.67;;;1.58;;
9218;SDS011;4644;48.858;9.184;2023-04-24T14:07:58;1.50;;;1.40;;
9218;SDS011;4644;48.858;9.184;2023-04-24T14:10:27;1.95;;;1.52;;
9218;SDS011;4644;48.858;9.184;2023-04-24T14:12:55;1.65;;;1.42;;
9218;SDS011;4644;48.858;9.184;2023-04-24T14:15:22;2.33;;;1.50;;
9218;SDS011;4644;48.858;9.184;2023-04-24T14:17:49;1.73;;;1.60;;
9218;SDS011;4644;48.858;9.184;2023-04-24T14:20:16;2.15;;;1.50;;
9218;SDS011;4644;48.858;9.184;2023-04-24T14:22:43;1.52;;;1.42;;
9218;SDS011;4644;48.858;9.184;2023-04-24T14:25:13;2.85;;;1.80;;
9218;SDS011;4644;48.858;9.184;2023-04-24T14:27:42;1.60;;;1.50;;
9218;SDS011;4644;48.858;9.184;2023-04-24T14:30:09;1.63;;;1.52;;
9218;SDS011;4644;48.858;9.184;2023-04-24T14:32:37;2.20;;;1.63;;
9218;SDS011;4644;48.858;9.184;2023-04-24T14:35:05;2.17;;;1.60;;
9218;SDS011;4644;48.858;9.184;2023-04-24T14:37:33;1.65;;;1.48;;
9218;SDS011;4644;48.858;9.184;2023-04-24T14:40:00;2.05;;;1.58;;
9218;SDS011;4644;48.858;9.184;2023-04-24T14:42:29;2.33;;;1.60;;
9218;SDS011;4644;48.858;9.184;2023-04-24T14:44:57;2.38;;;1.65;;
9218;SDS011;4644;48.858;9.184;2023-04-24T14:47:24;1.50;;;1.40;;
9218;SDS011;4644;48.858;9.184;2023-04-24T14:49:51;1.80;;;1.70;;
9218;SDS011;4644;48.858;9.184;2023-04-24T14:52:18;1.77;;;1.55;;
9218;SDS011;4644;48.858;9.184;2023-04-24T14:54:45;1.55;;;1.35;;
9218;SDS011;4644;48.858;9.184;2023-04-24T14:57:12;1.92;;;1.50;;
9218;SDS011;4644;48.858;9.184;2023-04-24T14:59:39;2.70;;;1.50;;
9218;SDS011;4644;48.858;9.184;2023-04-24T15:02:07;1.58;;;1.48;;
9218;SDS011;4644;48.858;9.184;2023-04-24T15:04:35;3.45;;;1.40;;
9218;SDS011;4644;48.858;9.184;2023-04-24T15:07:02;2.90;;;1.40;;
9218;SDS011;4644;48.858;9.184;2023-04-24T15:09:30;1.60;;;1.30;;
9218;SDS011;4644;48.858;9.184;2023-04-24T15:11:57;1.83;;;1.40;;
9218;SDS011;4644;48.858;9.184;2023-04-24T15:14:24;1.73;;;1.45;;
9218;SDS011;4644;48.858;9.184;2023-04-24T15:16:52;1.95;;;1.63;;
9218;SDS011;4644;48.858;9.184;2023-04-24T15:19:20;1.80;;;1.70;;
9218;SDS011;4644;48.858;9.184;2023-04-24T15:21:47;1.77;;;1.60;;
9218;SDS011;4644;48.858;9.184;2023-04-24T15:24:14;2.00;;;1.60;;
9218;SDS011;4644;48.858;9.184;2023-04-24T15:26:41;3.30;;;1.60;;
9218;SDS011;4644;48.858;9.184;2023-04-24T15:29:08;1.40;;;1.30;;
9218;SDS011;4644;48.858;9.184;2023-04-24T15:31:35;3.20;;;1.70;;
9218;SDS011;4644;48.858;9.184;2023-04-24T15:34:04;2.10;;;1.30;;
9218;SDS011;4644;48.858;9.184;2023-04-24T15:36:32;1.63;;;1.30;;
9218;SDS011;4644;48.858;9.184;2023-04-24T15:39:00;1.27;;;1.17;;
9218;SDS011;4644;48.858;9.184;2023-04-24T15:41:27;1.52;;;1.30;;
9218;SDS011;4644;48.858;9.184;2023-04-24T15:43:56;1.30;;;1.20;;
9218;SDS011;4644;48.858;9.184;2023-04-24T15:46:23;1.70;;;1.60;;
9218;SDS011;4644;48.858;9.184;2023-04-24T15:48:50;2.38;;;1.40;;
9218;SDS011;4644;48.858;9.184;2023-04-24T15:51:17;2.63;;;1.50;;
9218;SDS011;4644;48.858;9.184;2023-04-24T15:53:52;2.00;;;1.58;;
9218;SDS011;4644;48.858;9.184;2023-04-24T15:56:19;1.95;;;1.73;;
9218;SDS011;4644;48.858;9.184;2023-04-24T15:58:46;1.40;;;1.30;;
9218;SDS011;4644;48.858;9.184;2023-04-24T16:01:13;3.00;;;1.30;;
9218;SDS011;4644;48.858;9.184;2023-04-24T16:03:40;1.42;;;1.23;;
9218;SDS011;4644;48.858;9.184;2023-04-24T16:06:07;1.45;;;1.35;;
9218;SDS011;4644;48.858;9.184;2023-04-24T16:08:34;2.10;;;1.40;;
9218;SDS011;4644;48.858;9.184;2023-04-24T16:11:03;2.55;;;1.60;;
9218;SDS011;4644;48.858;9.184;2023-04-24T16:13:30;1.40;;;1.30;;
9218;SDS011;4644;48.858;9.184;2023-04-24T16:18:25;1.97;;;1.60;;
9218;SDS011;4644;48.858;9.184;2023-04-24T16:20:52;1.52;;;1.35;;
9218;SDS011;4644;48.858;9.184;2023-04-24T16:23:19;1.50;;;1.40;;
9218;SDS011;4644;48.858;9.184;2023-04-24T16:25:46;1.40;;;1.30;;
9218;SDS011;4644;48.858;9.184;2023-04-24T16:28:15;1.53;;;1.43;;
9218;SDS011;4644;48.858;9.184;2023-04-24T16:35:35;2.53;;;1.30;;
9218;SDS011;4644;48.858;9.184;2023-04-24T16:38:02;1.67;;;1.47;;
9218;SDS011;4644;48.858;9.184;2023-04-24T16:40:29;1.80;;;1.30;;
9218;SDS011;4644;48.858;9.184;2023-04-24T16:45:25;1.70;;;1.50;;
9218;SDS011;4644;48.858;9.184;2023-04-24T16:47:52;1.63;;;1.20;;
9218;SDS011;4644;48.858;9.184;2023-04-24T16:50:18;1.50;;;1.33;;
9218;SDS011;4644;48.858;9.184;2023-04-24T16:52:46;2.03;;;1.07;;
9218;SDS011;4644;48.858;9.184;2023-04-24T16:55:13;1.53;;;1.30;;
9218;SDS011;4644;48.858;9.184;2023-04-24T17:14:50;1.30;;;1.20;;
9218;SDS011;4644;48.858;9.184;2023-04-24T17:17:17;2.97;;;1.17;;
9218;SDS011;4644;48.858;9.184;2023-04-24T17:19:48;1.60;;;1.10;;
9218;SDS011;4644;48.858;9.184;2023-04-24T17:22:16;1.58;;;1.30;;
9218;SDS011;4644;48.858;9.184;2023-04-24T17:24:43;1.20;;;1.10;;
9218;SDS011;4644;48.858;9.184;2023-04-24T17:27:10;1.30;;;1.20;;
9218;SDS011;4644;48.858;9.184;2023-04-24T17:29:38;1.50;;;1.40;;
9218;SDS011;4644;48.858;9.184;2023-04-24T17:32:06;1.58;;;1.15;;
9218;SDS011;4644;48.858;9.184;2023-04-24T17:34:33;1.30;;;1.20;;
9218;SDS011;4644;48.858;9.184;2023-04-24T17:37:01;1.27;;;1.20;;
9218;SDS011;4644;48.858;9.184;2023-04-24T17:39:29;1.40;;;1.30;;
9218;SDS011;4644;48.858;9.184;2023-04-24T17:41:56;1.60;;;1.10;;
9218;SDS011;4644;48.858;9.184;2023-04-24T17:44:23;1.42;;;1.33;;
9218;SDS011;4644;48.858;9.184;2023-04-24T17:46:50;1.52;;;1.20;;
9218;SDS011;4644;48.858;9.184;2023-04-24T17:49:17;1.50;;;1.20;;
9218;SDS011;4644;48.858;9.184;2023-04-24T17:51:44;1.70;;;1.25;;
9218;SDS011;4644;48.858;9.184;2023-04-24T17:54:13;1.40;;;1.10;;
9218;SDS011;4644;48.858;9.184;2023-04-24T17:56:40;2.00;;;1.30;;
9218;SDS011;4644;48.858;9.184;2023-04-24T17:59:07;1.42;;;1.33;;
9218;SDS011;4644;48.858;9.184;2023-04-24T18:01:36;1.60;;;1.20;;
9218;SDS011;4644;48.858;9.184;2023-04-24T18:04:02;1.67;;;1.20;;
9218;SDS011;4644;48.858;9.184;2023-04-24T18:06:29;1.60;;;1.40;;
9218;SDS011;4644;48.858;9.184;2023-04-24T18:08:56;1.40;;;1.30;;
9218;SDS011;4644;48.858;9.184;2023-04-24T18:11:25;1.52;;;1.33;;
9218;SDS011;4644;48.858;9.184;2023-04-24T18:13:53;1.60;;;1.50;;
9218;SDS011;4644;48.858;9.184;2023-04-24T18:16:20;1.50;;;1.40;;
9218;SDS011;4644;48.858;9.184;2023-04-24T18:18:47;1.33;;;1.15;;
9218;SDS011;4644;48.858;9.184;2023-04-24T18:21:14;2.15;;;1.35;;
9218;SDS011;4644;48.858;9.184;2023-04-24T18:23:41;2.03;;;1.60;;
9218;SDS011;4644;48.858;9.184;2023-04-24T18:26:08;1.40;;;1.30;;
9218;SDS011;4644;48.858;9.184;2023-04-24T18:28:40;2.33;;;1.70;;
9218;SDS011;4644;48.858;9.184;2023-04-24T18:31:07;1.85;;;1.70;;
9218;SDS011;4644;48.858;9.184;2023-04-24T18:33:34;1.67;;;1.58;;
9218;SDS011;4644;48.858;9.184;2023-04-24T18:36:01;1.85;;;1.60;;
9218;SDS011;4644;48.858;9.184;2023-04-24T18:38:28;2.40;;;1.80;;
9218;SDS011;4644;48.858;9.184;2023-04-24T18:40:56;1.77;;;1.40;;
9218;SDS011;4644;48.858;9.184;2023-04-24T18:43:23;1.60;;;1.50;;
9218;SDS011;4644;48.858;9.184;2023-04-24T18:45:51;1.50;;;1.40;;
9218;SDS011;4644;48.858;9.184;2023-04-24T18:48:18;1.95;;;1.48;;
9218;SDS011;4644;48.858;9.184;2023-04-24T18:50:45;1.80;;;1.70;;
9218;SDS011;4644;48.858;9.184;2023-04-24T18:53:12;1.55;;;1.40;;
9218;SDS011;4644;48.858;9.184;2023-04-24T18:55:42;1.88;;;1.50;;
9218;SDS011;4644;48.858;9.184;2023-04-24T18:58:09;2.53;;;1.58;;
9218;SDS011;4644;48.858;9.184;2023-04-24T19:00:36;2.45;;;1.80;;
9218;SDS011;4644;48.858;9.184;2023-04-24T19:03:04;2.75;;;1.83;;
9218;SDS011;4644;48.858;9.184;2023-04-24T19:05:32;3.10;;;1.90;;
9218;SDS011;4644;48.858;9.184;2023-04-24T19:07:59;3.03;;;1.88;;
9218;SDS011;4644;48.858;9.184;2023-04-24T19:10:26;2.60;;;1.90;;